Weather at South Coast District Hospital Helipad

Public forecast

Using degrees Celsius for public forecast. Weather courtesy of forecast.io.

Closest aviation weather report (METAR) to South Coast District Hospital Helipad

Closest report is Adelaide International Airport, 37.2 nm (68.9 km) N. Retrieved 2021/06/24 18:30 UTC (18 minutes ago):

YPAD 241830Z 24015KT 9999 SCT025 BKN034 12/08 Q1013

Closest aviation forecast (TAF) to South Coast District Hospital Helipad

Closest forecast is Adelaide International Airport, 37.2 nm (68.9 km) N. Retrieved 2021/06/24 18:00 UTC (48 minutes ago):

TAF YPAD 241705Z 2418/2600 23013KT 9999 -SHRA SCT015 BKN025 FM250000 24014KT 9999 -SHRA SCT010 BKN020 FM250700 21012KT 9999 -SHRA SCT012 BKN025 FM251500 23008KT 9999 NSW SCT020 BKN030 INTER 2500/2512 4000 SHRA BKN012 BKN020